Time;durP1;ratioP1;P1;durP2;ratioP2;P2;SDS_P1;SDS_P2;PMS_P1;PMS_P2;Temp;Humidity;BMP_temperature;BMP_pressure;BME280_temperature;BME280_humidity;BME280_pressure;Samples;Min_cycle;Max_cycle;Signal;HPM_P1;HPM_P2
2024/03/02 00:00:16;;;;;;;15.73;11.17;;;6.60;19.30;;;;;;5052516;28;20410;-73
2024/03/02 00:02:45;;;;;;;16.77;8.73;;;6.70;19.20;;;;;;5038218;28;20512;-71
2024/03/02 00:05:28;;;;;;;15.00;9.03;;;6.70;18.90;;;;;;5055611;28;20501;-72
2024/03/02 00:07:58;;;;;;;15.37;10.97;;;6.70;17.60;;;;;;5056228;28;20795;-71
2024/03/02 00:10:36;;;;;;;15.23;10.00;;;6.70;18.10;;;;;;5056078;28;20492;-71
2024/03/02 00:13:02;;;;;;;13.53;9.30;;;6.60;19.10;;;;;;5055855;28;20406;-71
2024/03/02 00:15:47;;;;;;;13.20;10.00;;;6.50;19.30;;;;;;5056059;28;20767;-74
2024/03/02 00:18:27;;;;;;;15.67;10.67;;;6.50;19.50;;;;;;5055910;28;20697;-72
2024/03/02 00:20:55;;;;;;;15.57;10.97;;;6.40;19.90;;;;;;5055955;28;20389;-71
2024/03/02 00:23:22;;;;;;;13.70;10.30;;;6.40;19.90;;;;;;5037752;28;20446;-72
2024/03/02 00:25:53;;;;;;;12.60;9.97;;;6.50;19.30;;;;;;5055717;28;20966;-71
2024/03/02 00:28:24;;;;;;;15.77;9.70;;;6.50;19.10;;;;;;5055687;28;20462;-73
2024/03/02 00:31:02;;;;;;;16.37;9.80;;;6.50;19.40;;;;;;5037854;28;20421;-73
2024/03/02 00:33:34;;;;;;;16.20;9.60;;;6.50;19.30;;;;;;5037597;28;20443;-72
2024/03/02 00:36:00;;;;;;;15.37;9.80;;;6.50;19.40;;;;;;5037771;28;20476;-72
2024/03/02 00:38:30;;;;;;;19.13;10.23;;;6.40;19.10;;;;;;5037816;28;20638;-71
2024/03/02 00:40:58;;;;;;;11.10;8.60;;;6.40;19.80;;;;;;5037393;28;20422;-70
2024/03/02 00:43:38;;;;;;;16.00;10.03;;;6.30;21.00;;;;;;5055046;28;20436;-71
2024/03/02 00:46:04;;;;;;;13.60;9.90;;;6.30;21.00;;;;;;5055392;28;20802;-70
2024/03/02 00:48:35;;;;;;;12.73;9.30;;;6.30;21.00;;;;;;5055235;28;20415;-72
2024/03/02 00:51:04;;;;;;;16.27;9.87;;;6.30;21.00;;;;;;5037162;28;20190;-73
2024/03/02 00:53:33;;;;;;;12.83;9.93;;;6.30;21.00;;;;;;5054557;28;20465;-73
2024/03/02 00:56:02;;;;;;;13.87;9.67;;;6.20;20.90;;;;;;5055157;28;20473;-72
2024/03/02 00:58:27;;;;;;;12.13;10.03;;;6.20;21.50;;;;;;5037440;28;20508;-71
2024/03/02 01:00:53;;;;;;;12.90;9.07;;;6.20;20.90;;;;;;5036844;28;20493;-73
2024/03/02 01:03:19;;;;;;;13.77;9.33;;;6.20;21.60;;;;;;5054438;28;20198;-72
2024/03/02 01:05:45;;;;;;;13.10;9.07;;;6.20;21.30;;;;;;5036661;28;20267;-72
2024/03/02 01:08:11;;;;;;;12.23;9.40;;;6.20;20.90;;;;;;5036805;28;20418;-72
2024/03/02 01:10:36;;;;;;;14.90;10.80;;;6.20;20.90;;;;;;5054393;28;20186;-71
2024/03/02 01:13:02;;;;;;;13.97;10.17;;;6.10;23.00;;;;;;5054065;28;20417;-72
2024/03/02 01:15:27;;;;;;;11.20;8.00;;;6.10;22.50;;;;;;5036456;28;20184;-72
2024/03/02 01:17:53;;;;;;;15.80;10.50;;;6.10;23.40;;;;;;5037162;28;20662;-73
2024/03/02 01:20:19;;;;;;;13.43;9.00;;;6.10;22.90;;;;;;5054616;28;20233;-72
2024/03/02 01:22:44;;;;;;;12.63;8.77;;;6.10;22.60;;;;;;5036409;28;20194;-72
2024/03/02 01:25:10;;;;;;;13.60;9.10;;;6.00;22.70;;;;;;5036540;28;20224;-72
2024/03/02 01:27:35;;;;;;;16.17;10.50;;;5.90;23.60;;;;;;5054345;28;20262;-72
2024/03/02 01:30:01;;;;;;;13.70;8.97;;;5.80;25.00;;;;;;5054444;28;20171;-72
2024/03/02 01:32:26;;;;;;;15.47;10.90;;;5.80;25.90;;;;;;5054179;28;20183;-72
2024/03/02 01:34:52;;;;;;;14.20;10.77;;;5.80;26.10;;;;;;5054007;28;20195;-71
2024/03/02 01:37:18;;;;;;;16.43;9.67;;;5.70;25.70;;;;;;5054323;28;20275;-71
2024/03/02 01:39:43;;;;;;;15.07;10.57;;;5.60;26.90;;;;;;5053983;28;20188;-73
2024/03/02 01:42:10;;;;;;;12.53;8.30;;;5.60;26.70;;;;;;5053939;28;20265;-71
2024/03/02 01:44:36;;;;;;;15.37;11.93;;;5.60;26.30;;;;;;5035452;28;20210;-71
2024/03/02 01:47:01;;;;;;;12.67;8.80;;;5.60;25.80;;;;;;5053851;28;20832;-75
2024/03/02 01:49:27;;;;;;;14.83;8.97;;;5.60;26.00;;;;;;5053768;28;20179;-72
2024/03/02 01:51:53;;;;;;;15.60;10.67;;;5.50;26.70;;;;;;5053697;28;20179;-71
2024/03/02 01:54:18;;;;;;;15.00;10.23;;;5.40;28.60;;;;;;5053349;28;20684;-72
2024/03/02 01:56:45;;;;;;;14.70;9.63;;;5.30;29.30;;;;;;5053398;28;20488;-71
2024/03/02 01:59:13;;;;;;;13.43;9.47;;;5.30;29.80;;;;;;5053578;28;20195;-71
2024/03/02 02:01:39;;;;;;;16.47;10.50;;;5.30;29.10;;;;;;5053438;28;20409;-70
2024/03/02 02:04:06;;;;;;;15.10;10.40;;;5.20;29.50;;;;;;5053274;28;20809;-72
2024/03/02 02:06:32;;;;;;;18.70;10.90;;;5.10;29.90;;;;;;5053760;28;20283;-73
2024/03/02 02:08:57;;;;;;;15.90;10.37;;;5.10;30.50;;;;;;5053851;28;20732;-72
2024/03/02 02:11:24;;;;;;;14.93;10.10;;;5.10;30.40;;;;;;5054046;28;20428;-73
2024/03/02 02:13:51;;;;;;;25.63;13.50;;;5.00;30.70;;;;;;5053357;28;20218;-73
2024/03/02 02:16:17;;;;;;;15.17;10.40;;;4.90;30.30;;;;;;5053306;28;20487;-71
2024/03/02 02:18:42;;;;;;;16.87;10.80;;;4.70;31.00;;;;;;5035255;28;20421;-73
2024/03/02 02:21:08;;;;;;;18.27;10.63;;;4.70;34.10;;;;;;5053100;28;20181;-72
2024/03/02 02:23:34;;;;;;;17.17;10.80;;;4.70;34.30;;;;;;5052032;28;20281;-72
2024/03/02 02:25:59;;;;;;;16.70;10.50;;;4.50;34.90;;;;;;5035170;28;20206;-71
2024/03/02 02:28:25;;;;;;;13.97;10.53;;;4.50;34.20;;;;;;5052852;28;20183;-72
2024/03/02 02:30:51;;;;;;;17.80;9.33;;;4.40;36.80;;;;;;5052964;28;20185;-72
2024/03/02 02:33:16;;;;;;;20.33;11.80;;;4.30;38.20;;;;;;5052631;28;20198;-73
2024/03/02 02:35:42;;;;;;;17.10;10.97;;;4.20;37.50;;;;;;5052713;28;20417;-71
2024/03/02 02:38:07;;;;;;;19.40;12.53;;;4.20;38.90;;;;;;5052778;28;20225;-72
2024/03/02 02:40:36;;;;;;;16.87;11.80;;;4.20;37.10;;;;;;5052623;28;20177;-71
2024/03/02 02:43:01;;;;;;;17.33;11.97;;;4.10;37.80;;;;;;5052244;28;20641;-71
2024/03/02 02:45:27;;;;;;;19.20;12.47;;;4.00;40.20;;;;;;5034545;28;20503;-71
2024/03/02 02:47:55;;;;;;;21.40;12.53;;;4.10;39.80;;;;;;5052386;28;20178;-71
2024/03/02 02:50:21;;;;;;;17.10;11.07;;;4.10;39.80;;;;;;5034597;28;20192;-72
2024/03/02 02:52:46;;;;;;;20.70;13.07;;;4.00;38.50;;;;;;5052644;28;20412;-71
2024/03/02 02:55:13;;;;;;;18.90;11.87;;;3.90;38.70;;;;;;5052122;28;20194;-71
2024/03/02 02:57:41;;;;;;;14.97;11.10;;;3.90;38.70;;;;;;5052234;28;20252;-73
2024/03/02 03:00:13;;;;;;;13.70;9.97;;;3.80;38.70;;;;;;5052574;28;20776;-72
2024/03/02 03:02:47;;;;;;;16.45;11.15;;;3.80;39.50;;;;;;5034170;28;20425;-72
2024/03/02 03:05:14;;;;;;;22.60;11.30;;;3.70;38.30;;;;;;5052026;28;20192;-71
2024/03/02 03:07:40;;;;;;;13.43;9.03;;;3.70;38.10;;;;;;5052169;28;20420;-71
2024/03/02 03:10:07;;;;;;;18.47;12.40;;;3.60;38.70;;;;;;5034027;28;20782;-72
2024/03/02 03:12:36;;;;;;;15.70;11.65;;;3.60;37.70;;;;;;5034991;28;20457;-74
2024/03/02 03:15:06;;;;;;;23.00;11.37;;;3.50;39.30;;;;;;5053155;28;20209;-73
2024/03/02 03:17:32;;;;;;;15.90;10.33;;;3.50;39.10;;;;;;5053199;28;20463;-72
2024/03/02 03:19:57;;;;;;;18.10;12.23;;;3.50;39.60;;;;;;5052073;28;20469;-73
2024/03/02 03:22:25;;;;;;;22.40;14.00;;;3.40;38.80;;;;;;5051969;28;20657;-73
2024/03/02 03:24:51;;;;;;;17.25;11.95;;;3.40;40.50;;;;;;5051466;28;20198;-74
2024/03/02 03:27:16;;;;;;;19.80;12.77;;;3.40;40.40;;;;;;5052009;28;20614;-73
2024/03/02 03:29:42;;;;;;;20.73;11.43;;;3.30;41.00;;;;;;5051806;28;20179;-74
2024/03/02 03:32:08;;;;;;;18.53;12.07;;;3.30;41.00;;;;;;5051727;28;20271;-72
2024/03/02 03:34:35;;;;;;;18.97;13.57;;;3.20;41.30;;;;;;5050894;28;20195;-74
2024/03/02 03:37:02;;;;;;;25.80;13.95;;;3.20;42.10;;;;;;5051734;28;20203;-73
2024/03/02 03:39:28;;;;;;;15.67;11.60;;;3.20;43.10;;;;;;5052826;28;20184;-73
2024/03/02 03:41:56;;;;;;;19.25;11.10;;;3.30;45.30;;;;;;5052325;28;20408;-75
2024/03/02 03:44:22;;;;;;;17.08;11.60;;;3.30;45.80;;;;;;5052475;28;20310;-74
2024/03/02 03:46:47;;;;;;;17.80;12.00;;;3.40;45.90;;;;;;5056022;28;20180;-74
2024/03/02 03:49:13;;;;;;;18.33;10.57;;;3.40;46.00;;;;;;5057014;28;20188;-73
2024/03/02 03:51:39;;;;;;;21.93;12.50;;;3.40;46.80;;;;;;5038756;28;20753;-74
2024/03/02 03:54:04;;;;;;;19.50;11.50;;;3.50;45.80;;;;;;5053771;28;20442;-74
2024/03/02 03:56:30;;;;;;;16.53;11.20;;;3.50;45.60;;;;;;5034755;28;20319;-73
2024/03/02 03:58:56;;;;;;;17.27;11.57;;;3.50;44.70;;;;;;5052180;28;20193;-73
2024/03/02 04:01:22;;;;;;;15.33;11.07;;;3.60;45.80;;;;;;5052232;28;20178;-73
2024/03/02 04:03:48;;;;;;;20.10;11.98;;;3.60;45.20;;;;;;5033677;28;20443;-74
2024/03/02 04:06:16;;;;;;;18.53;11.73;;;3.60;44.70;;;;;;5052128;28;20267;-74
2024/03/02 04:08:41;;;;;;;14.98;10.90;;;3.60;44.40;;;;;;5051767;28;20484;-74
2024/03/02 04:11:07;;;;;;;17.20;10.50;;;3.60;44.90;;;;;;5051923;28;20665;-74
2024/03/02 04:13:33;;;;;;;15.43;10.60;;;3.60;43.90;;;;;;5033646;28;20215;-74
2024/03/02 04:15:59;;;;;;;15.67;9.40;;;3.60;44.60;;;;;;5051730;28;20255;-73
2024/03/02 04:18:24;;;;;;;15.17;9.27;;;3.70;43.60;;;;;;5051911;28;20639;-74
2024/03/02 04:20:50;;;;;;;17.40;10.00;;;3.70;43.10;;;;;;5051987;28;20726;-74
2024/03/02 04:23:15;;;;;;;13.53;8.73;;;3.70;43.70;;;;;;5051462;28;20194;-74
2024/03/02 04:25:41;;;;;;;15.50;9.63;;;3.80;43.30;;;;;;5033937;28;20187;-73
2024/03/02 04:28:06;;;;;;;14.83;10.43;;;3.90;43.50;;;;;;5033920;28;20656;-74
2024/03/02 04:30:32;;;;;;;10.20;7.13;;;3.90;43.00;;;;;;5051653;28;20261;-74
2024/03/02 04:32:58;;;;;;;11.53;7.33;;;3.90;42.20;;;;;;5051815;28;20235;-74
2024/03/02 04:35:23;;;;;;;15.03;9.60;;;4.00;42.70;;;;;;5051432;28;20173;-74
2024/03/02 04:37:49;;;;;;;13.00;7.13;;;4.10;42.50;;;;;;5051392;28;20209;-74
2024/03/02 04:40:14;;;;;;;13.50;8.90;;;4.20;41.80;;;;;;5051571;28;20533;-74
2024/03/02 04:42:40;;;;;;;12.47;8.30;;;4.40;41.10;;;;;;5033560;28;20519;-74
2024/03/02 04:45:07;;;;;;;10.60;8.07;;;4.50;40.00;;;;;;5051059;28;20198;-74
2024/03/02 04:47:32;;;;;;;14.40;9.33;;;4.50;38.80;;;;;;5054335;28;20181;-74
2024/03/02 04:49:58;;;;;;;14.03;9.60;;;4.50;38.60;;;;;;5037287;28;20790;-74
2024/03/02 04:52:24;;;;;;;16.13;9.80;;;4.50;36.70;;;;;;5055049;28;20198;-73
2024/03/02 04:57:33;;;;;;;13.77;8.77;;;4.50;35.90;;;;;;5054991;28;20240;-73
2024/03/02 04:59:59;;;;;;;12.87;7.60;;;4.50;33.80;;;;;;5055041;28;20467;-73
2024/03/02 05:02:24;;;;;;;13.70;7.80;;;4.50;34.70;;;;;;5055049;28;20541;-73
2024/03/02 05:04:50;;;;;;;12.43;9.10;;;4.50;34.40;;;;;;5054471;28;20194;-73
2024/03/02 05:07:16;;;;;;;14.00;7.43;;;4.50;35.30;;;;;;5054775;28;20229;-73
2024/03/02 05:09:42;;;;;;;12.13;7.40;;;4.50;33.90;;;;;;5054956;28;20245;-73
2024/03/02 05:12:34;;;;;;;12.30;9.50;;;4.40;34.10;;;;;;5055041;28;20171;-73
2024/03/02 05:15:00;;;;;;;14.50;8.40;;;4.50;34.30;;;;;;5036385;28;20858;-73
2024/03/02 05:17:26;;;;;;;10.37;7.53;;;4.60;33.50;;;;;;5054621;28;20463;-73
2024/03/02 05:19:52;;;;;;;12.23;7.70;;;4.70;30.60;;;;;;5054528;28;20463;-73
2024/03/02 05:22:17;;;;;;;11.20;7.13;;;4.80;28.30;;;;;;5036798;28;20174;-73
2024/03/02 05:24:43;;;;;;;11.27;7.03;;;4.90;27.90;;;;;;5054633;28;20618;-73
2024/03/02 05:27:08;;;;;;;10.27;6.50;;;4.90;26.60;;;;;;5054367;28;20191;-73
2024/03/02 05:29:34;;;;;;;9.40;7.30;;;5.00;26.00;;;;;;5053930;28;20186;-74
2024/03/02 05:32:00;;;;;;;7.57;5.70;;;4.90;26.20;;;;;;5036587;28;20299;-73
2024/03/02 05:34:25;;;;;;;9.67;6.80;;;4.80;26.40;;;;;;5054324;28;20203;-73
2024/03/02 05:36:51;;;;;;;9.37;6.50;;;4.80;26.60;;;;;;5054784;28;20213;-74
2024/03/02 05:39:16;;;;;;;8.73;6.70;;;4.80;26.00;;;;;;5054958;28;20198;-70
2024/03/02 05:41:42;;;;;;;10.47;6.47;;;4.70;26.00;;;;;;5054549;28;20173;-70
2024/03/02 05:44:07;;;;;;;14.00;7.53;;;4.70;26.50;;;;;;5053560;28;20255;-70
2024/03/02 05:46:33;;;;;;;10.07;7.43;;;4.60;26.30;;;;;;5053940;28;20706;-70
2024/03/02 05:49:02;;;;;;;15.00;8.20;;;4.60;26.80;;;;;;5054039;28;20182;-71
2024/03/02 05:51:28;;;;;;;11.80;7.73;;;4.50;27.20;;;;;;5035775;28;20186;-70
2024/03/02 05:53:53;;;;;;;9.90;6.70;;;4.50;27.80;;;;;;5053302;28;20523;-70
2024/03/02 05:56:19;;;;;;;8.90;6.67;;;4.50;28.10;;;;;;5053718;28;20238;-70
2024/03/02 06:01:30;;;;;;;12.13;6.80;;;4.60;26.80;;;;;;5053987;28;20228;-70
2024/03/02 06:03:56;;;;;;;10.10;7.10;;;4.60;26.60;;;;;;5035626;28;20494;-71
2024/03/02 06:06:23;;;;;;;8.73;6.20;;;4.50;26.00;;;;;;5035531;28;20417;-71
2024/03/02 06:08:48;;;;;;;7.60;5.47;;;4.50;25.20;;;;;;5053711;28;20893;-70
2024/03/02 06:11:14;;;;;;;13.07;8.50;;;4.60;25.70;;;;;;5053601;28;20455;-70
2024/03/02 06:13:39;;;;;;;11.20;8.20;;;4.50;24.50;;;;;;5053479;28;20213;-70
2024/03/02 06:16:05;;;;;;;10.37;7.03;;;4.50;26.10;;;;;;5054294;28;20228;-70
2024/03/02 06:18:31;;;;;;;9.60;7.27;;;4.50;25.10;;;;;;5054071;28;20549;-71
2024/03/02 06:20:57;;;;;;;11.53;8.07;;;4.50;25.90;;;;;;5053638;28;20484;-70
2024/03/02 06:23:22;;;;;;;13.40;7.17;;;4.50;26.50;;;;;;5053573;28;20538;-70
2024/03/02 06:25:48;;;;;;;12.77;8.20;;;4.50;26.30;;;;;;5053545;28;20186;-72
2024/03/02 06:28:15;;;;;;;12.90;8.93;;;4.60;26.90;;;;;;5035547;28;20182;-72
2024/03/02 06:30:42;;;;;;;10.77;6.93;;;4.60;26.60;;;;;;5054346;28;20702;-73
2024/03/02 06:33:08;;;;;;;10.00;7.90;;;4.60;26.70;;;;;;5057128;28;20814;-73
2024/03/02 06:35:35;;;;;;;11.10;7.60;;;4.70;26.10;;;;;;5055268;28;20464;-72
2024/03/02 06:38:03;;;;;;;9.00;6.13;;;4.80;25.20;;;;;;5035549;28;20468;-72
2024/03/02 06:40:28;;;;;;;9.73;7.03;;;5.00;23.20;;;;;;5053058;28;20448;-72
2024/03/02 06:42:54;;;;;;;9.33;6.60;;;5.10;20.20;;;;;;5052861;28;20413;-72
2024/03/02 06:45:19;;;;;;;10.27;6.60;;;5.30;19.60;;;;;;5052877;28;20171;-71
2024/03/02 06:47:45;;;;;;;9.07;6.33;;;5.50;19.60;;;;;;5053296;28;20264;-72
2024/03/02 06:50:11;;;;;;;6.90;5.40;;;5.70;18.60;;;;;;5052800;28;20178;-73
2024/03/02 06:52:37;;;;;;;8.63;5.27;;;5.90;16.50;;;;;;5055610;28;20266;-72
2024/03/02 06:55:04;;;;;;;8.73;6.50;;;6.10;14.00;;;;;;5052583;28;20433;-72
2024/03/02 06:57:29;;;;;;;10.23;7.10;;;6.30;12.40;;;;;;5052742;28;20226;-72
2024/03/02 06:59:58;;;;;;;9.57;6.43;;;6.50;12.70;;;;;;5052638;28;20450;-72
2024/03/02 07:02:26;;;;;;;9.77;6.80;;;6.60;10.80;;;;;;5034758;28;20178;-72
2024/03/02 07:04:53;;;;;;;15.33;6.80;;;6.60;8.90;;;;;;5052396;28;20812;-72
2024/03/02 07:07:18;;;;;;;7.53;4.50;;;6.80;8.40;;;;;;5034868;28;20475;-72
2024/03/02 07:09:44;;;;;;;7.00;5.43;;;7.00;7.70;;;;;;5052634;28;20418;-72
2024/03/02 07:12:10;;;;;;;10.43;6.17;;;7.20;6.10;;;;;;5052975;28;20722;-71
2024/03/02 07:15:10;;;;;;;8.50;5.13;;;7.30;4.20;;;;;;5052844;28;20270;-72
2024/03/02 07:17:37;;;;;;;8.03;5.20;;;7.40;4.30;;;;;;5034606;28;20240;-71
2024/03/02 07:20:03;;;;;;;8.50;6.20;;;7.60;4.40;;;;;;5052216;28;20415;-72
2024/03/02 07:22:33;;;;;;;8.37;5.90;;;7.80;3.70;;;;;;5052294;28;20425;-72
2024/03/02 07:24:58;;;;;;;8.17;6.30;;;8.00;2.50;;;;;;5052267;28;20440;-72
2024/03/02 07:27:24;;;;;;;10.63;6.30;;;8.20;1.60;;;;;;5052194;28;20427;-72
2024/03/02 07:29:50;;;;;;;7.60;5.60;;;8.30;1.60;;;;;;5052521;28;20181;-72
2024/03/02 07:32:15;;;;;;;7.17;5.40;;;8.50;1.00;;;;;;5052178;28;20181;-74
2024/03/02 07:34:41;;;;;;;9.60;5.90;;;8.40;1.00;;;;;;5034662;28;20208;-73
2024/03/02 07:37:06;;;;;;;6.80;5.80;;;8.30;1.00;;;;;;5052381;28;20213;-73
2024/03/02 07:39:32;;;;;;;7.60;5.03;;;8.10;1.00;;;;;;5052289;28;20184;-73
2024/03/02 07:41:58;;;;;;;10.10;5.90;;;7.90;1.00;;;;;;5052758;28;20235;-72
2024/03/02 07:44:23;;;;;;;8.10;6.17;;;7.90;1.00;;;;;;5051962;28;20570;-72
2024/03/02 07:46:51;;;;;;;11.60;6.47;;;7.90;1.00;;;;;;5052906;28;20583;-71
2024/03/02 07:49:18;;;;;;;7.17;5.80;;;7.80;1.10;;;;;;5052286;28;20235;-72
2024/03/02 07:51:44;;;;;;;8.30;5.93;;;7.70;1.20;;;;;;5053565;28;20420;-72
2024/03/02 07:54:10;;;;;;;8.27;5.70;;;7.70;2.40;;;;;;5056294;28;20441;-72
2024/03/02 07:56:35;;;;;;;9.40;7.07;;;7.70;1.70;;;;;;5039777;28;20300;-71
2024/03/02 07:59:02;;;;;;;9.70;6.43;;;7.70;2.30;;;;;;5052948;28;20512;-71
2024/03/02 08:01:30;;;;;;;7.47;5.47;;;7.70;2.10;;;;;;5052579;28;20172;-71
2024/03/02 08:04:00;;;;;;;9.00;5.60;;;7.70;1.50;;;;;;5033883;28;20451;-71
2024/03/02 08:06:29;;;;;;;8.30;6.43;;;7.70;1.90;;;;;;5034374;28;20439;-71
2024/03/02 08:08:56;;;;;;;7.77;5.80;;;7.70;3.00;;;;;;5051977;28;20515;-71
2024/03/02 08:11:22;;;;;;;8.63;5.80;;;7.70;2.30;;;;;;5051926;28;20414;-71
2024/03/02 08:13:48;;;;;;;6.80;5.30;;;7.80;2.20;;;;;;5051661;28;20874;-71
2024/03/02 08:16:21;;;;;;;9.30;6.23;;;7.80;2.50;;;;;;5051768;28;20532;-71
2024/03/02 08:18:48;;;;;;;9.50;7.17;;;7.90;2.00;;;;;;5053992;28;20827;-71
2024/03/02 08:21:14;;;;;;;8.00;6.07;;;8.00;1.90;;;;;;5052493;28;20937;-71
2024/03/02 08:23:41;;;;;;;8.33;5.30;;;8.10;1.00;;;;;;5055567;28;20444;-71
2024/03/02 08:26:07;;;;;;;5.50;4.83;;;8.20;1.00;;;;;;5055672;28;20424;-71
2024/03/02 08:28:33;;;;;;;9.00;4.97;;;8.30;1.00;;;;;;5055504;28;20421;-71
2024/03/02 08:30:59;;;;;;;7.47;5.20;;;8.50;1.00;;;;;;5055546;28;20170;-71
2024/03/02 08:33:24;;;;;;;6.33;4.50;;;8.70;1.00;;;;;;5054943;28;20866;-71
2024/03/02 08:35:50;;;;;;;7.13;4.50;;;9.10;1.00;;;;;;5055178;28;20185;-71
2024/03/02 08:38:16;;;;;;;24.53;4.83;;;9.30;1.00;;;;;;5055385;28;20174;-71
2024/03/02 08:40:41;;;;;;;8.03;4.63;;;9.30;1.00;;;;;;5055547;28;20433;-71
2024/03/02 08:43:07;;;;;;;5.77;4.60;;;9.40;1.00;;;;;;5055083;28;20190;-71
2024/03/02 08:45:36;;;;;;;5.87;3.80;;;9.50;1.00;;;;;;5055166;28;20178;-71
2024/03/02 08:48:02;;;;;;;9.07;3.97;;;9.50;1.00;;;;;;5037349;28;20420;-71
2024/03/02 08:50:28;;;;;;;6.70;5.00;;;9.50;1.00;;;;;;5037454;28;20559;-71
2024/03/02 08:52:53;;;;;;;8.60;6.37;;;9.50;1.00;;;;;;5054997;28;20799;-71
2024/03/02 08:55:19;;;;;;;8.47;5.63;;;9.50;1.00;;;;;;5054610;28;20202;-71
2024/03/02 08:57:44;;;;;;;6.30;4.80;;;9.60;1.00;;;;;;5055064;28;20214;-71
2024/03/02 09:00:10;;;;;;;6.07;3.87;;;9.60;1.00;;;;;;5055530;28;20189;-71
2024/03/02 09:02:36;;;;;;;6.10;5.17;;;9.60;1.00;;;;;;5055055;28;20187;-71
2024/03/02 09:05:02;;;;;;;5.57;4.63;;;9.60;1.00;;;;;;5054807;28;20441;-71
2024/03/02 09:07:27;;;;;;;6.77;4.60;;;9.60;1.00;;;;;;5055069;28;20527;-71
2024/03/02 09:09:53;;;;;;;7.90;5.27;;;9.50;1.00;;;;;;5037194;28;20661;-71
2024/03/02 09:12:19;;;;;;;7.07;5.20;;;9.60;1.00;;;;;;5054661;28;20220;-71
2024/03/02 09:14:46;;;;;;;6.37;5.00;;;9.70;1.00;;;;;;5047007;22;20227;-68
2024/03/02 09:17:12;;;;;;;7.03;5.20;;;9.80;1.00;;;;;;5034262;28;20832;-69
2024/03/02 09:19:41;;;;;;;17.33;7.77;;;9.90;1.00;;;;;;5034713;28;20506;-69
2024/03/02 09:22:06;;;;;;;9.33;5.50;;;10.00;1.00;;;;;;5034367;28;20182;-71
2024/03/02 09:24:35;;;;;;;7.07;5.83;;;10.10;1.00;;;;;;5021540;28;20813;-68
2024/03/02 09:27:01;;;;;;;7.97;6.97;;;10.10;1.00;;;;;;5014503;28;20693;-69
2024/03/02 09:29:26;;;;;;;10.60;7.60;;;10.10;1.00;;;;;;5014312;28;20410;-69
2024/03/02 09:31:52;;;;;;;8.97;7.33;;;10.10;1.00;;;;;;5014359;28;20172;-68
2024/03/02 09:34:17;;;;;;;11.17;7.53;;;10.10;1.00;;;;;;5014040;28;20567;-68
2024/03/02 09:36:43;;;;;;;8.10;5.93;;;10.10;1.00;;;;;;5014225;28;20763;-68
2024/03/02 09:39:09;;;;;;;5.67;4.10;;;10.20;1.00;;;;;;5014334;28;20639;-68
2024/03/02 09:41:36;;;;;;;5.70;3.27;;;10.30;1.00;;;;;;5014284;28;20259;-68
2024/03/02 09:44:03;;;;;;;6.00;3.80;;;10.60;1.00;;;;;;5014017;28;20506;-69
2024/03/02 09:46:28;;;;;;;5.90;3.77;;;10.80;1.00;;;;;;5014218;28;20480;-69
2024/03/02 09:48:54;;;;;;;5.40;3.50;;;10.90;1.00;;;;;;5014152;28;20415;-69
2024/03/02 09:51:20;;;;;;;4.97;3.50;;;11.10;1.00;;;;;;5013925;28;20184;-69
2024/03/02 09:53:47;;;;;;;4.87;3.07;;;11.30;1.00;;;;;;5013666;28;20437;-69
2024/03/02 09:56:12;;;;;;;5.23;3.43;;;11.50;1.00;;;;;;5014093;28;20210;-69
2024/03/02 09:58:39;;;;;;;4.50;3.17;;;11.60;1.00;;;;;;5014839;28;20871;-69
2024/03/02 10:01:09;;;;;;;6.47;4.40;;;11.70;1.00;;;;;;5014389;28;20184;-69
2024/03/02 10:03:37;;;;;;;5.53;4.90;;;11.80;1.00;;;;;;5014619;28;20431;-69
2024/03/02 10:06:22;;;;;;;6.53;5.07;;;11.90;1.00;;;;;;4997070;28;20472;-69
2024/03/02 10:08:50;;;;;;;6.53;4.40;;;12.10;1.00;;;;;;5014196;28;20968;-69
2024/03/02 10:11:34;;;;;;;5.77;4.20;;;12.20;1.00;;;;;;4996590;28;20858;-69
2024/03/02 10:14:08;;;;;;;6.23;3.80;;;12.30;1.00;;;;;;5014107;28;20499;-68
2024/03/02 10:16:36;;;;;;;5.10;3.30;;;12.50;1.00;;;;;;5013965;28;20461;-69
2024/03/02 10:19:18;;;;;;;5.20;3.30;;;12.60;1.00;;;;;;4996518;28;20845;-69
2024/03/02 10:21:45;;;;;;;4.37;2.87;;;12.70;1.00;;;;;;5014024;28;20418;-69
2024/03/02 10:24:10;;;;;;;4.83;2.53;;;12.80;1.00;;;;;;5013672;28;20438;-69
2024/03/02 10:26:39;;;;;;;4.73;2.90;;;12.90;1.00;;;;;;5013891;28;20485;-69
2024/03/02 10:29:05;;;;;;;3.60;2.23;;;13.10;1.00;;;;;;5013997;28;20247;-69
2024/03/02 10:31:31;;;;;;;4.50;2.33;;;13.20;1.00;;;;;;5014095;28;20506;-69
2024/03/02 10:34:01;;;;;;;4.10;3.13;;;13.30;1.00;;;;;;5013349;28;20192;-69
2024/03/02 10:36:28;;;;;;;3.30;2.33;;;13.40;1.00;;;;;;5013669;28;20462;-69
2024/03/02 10:38:55;;;;;;;3.80;2.50;;;13.50;1.00;;;;;;5013909;28;20415;-69
2024/03/02 10:41:26;;;;;;;5.30;2.97;;;13.70;1.00;;;;;;4996236;28;20469;-69
2024/03/02 10:43:55;;;;;;;4.70;3.07;;;13.90;1.00;;;;;;5012793;28;20432;-69
2024/03/02 10:46:22;;;;;;;6.13;2.67;;;14.00;1.00;;;;;;5013802;28;20443;-69
2024/03/02 10:48:49;;;;;;;4.90;2.90;;;14.10;1.00;;;;;;5013433;28;20410;-69
2024/03/02 10:51:15;;;;;;;3.73;2.90;;;14.30;1.00;;;;;;4995873;28;20522;-69
2024/03/02 10:53:40;;;;;;;4.00;2.10;;;14.40;1.00;;;;;;5012904;28;20521;-69
2024/03/02 10:56:09;;;;;;;2.10;1.43;;;14.50;1.00;;;;;;5013058;28;20423;-69
2024/03/02 10:58:36;;;;;;;2.83;1.77;;;14.50;1.00;;;;;;5013281;28;20255;-69
2024/03/02 11:01:07;;;;;;;2.60;1.70;;;14.60;1.00;;;;;;5013854;28;20422;-69
2024/03/02 11:03:37;;;;;;;2.80;1.93;;;14.70;1.00;;;;;;5013531;28;20434;-69
2024/03/02 11:06:06;;;;;;;3.07;2.17;;;14.80;1.00;;;;;;5013863;28;20486;-69
2024/03/02 11:08:33;;;;;;;2.10;1.83;;;14.70;1.00;;;;;;4995828;28;20473;-71
2024/03/02 11:11:10;;;;;;;2.17;1.63;;;14.80;1.00;;;;;;5014287;28;20560;-69
2024/03/02 11:13:39;;;;;;;2.17;1.70;;;14.80;1.00;;;;;;5013016;28;20478;-69
2024/03/02 11:16:12;;;;;;;2.53;1.90;;;14.80;1.00;;;;;;5013658;28;20422;-67
2024/03/02 11:18:40;;;;;;;2.50;1.80;;;14.80;1.00;;;;;;5013527;28;20549;-68
2024/03/02 11:21:07;;;;;;;2.60;1.80;;;14.90;1.00;;;;;;5013479;28;20426;-68
2024/03/02 11:23:33;;;;;;;4.27;2.00;;;15.00;1.00;;;;;;4995488;28;20481;-68
2024/03/02 11:26:21;;;;;;;2.07;1.73;;;15.20;1.00;;;;;;4995428;28;20594;-68
2024/03/02 11:28:47;;;;;;;3.00;2.13;;;15.30;1.00;;;;;;5013284;28;20407;-68
2024/03/02 11:31:12;;;;;;;2.50;1.80;;;15.40;1.00;;;;;;5013337;28;20781;-68
2024/03/02 11:33:38;;;;;;;3.03;2.10;;;15.60;1.00;;;;;;5012756;28;20522;-68
2024/03/02 11:36:07;;;;;;;2.30;1.93;;;15.70;1.00;;;;;;5012958;28;20184;-69
2024/03/02 11:38:34;;;;;;;2.93;2.37;;;15.80;1.00;;;;;;5012606;28;20623;-69
2024/03/02 11:41:07;;;;;;;2.87;2.07;;;15.80;1.00;;;;;;5012707;28;20466;-69
2024/03/02 11:43:33;;;;;;;2.57;1.77;;;15.80;1.00;;;;;;5012535;28;20451;-69
2024/03/02 11:46:00;;;;;;;2.10;1.47;;;15.80;1.00;;;;;;4995255;28;20456;-69
2024/03/02 11:48:26;;;;;;;2.00;1.80;;;16.00;1.00;;;;;;5012853;28;20423;-69
2024/03/02 11:50:52;;;;;;;3.20;2.30;;;15.90;1.00;;;;;;5012988;28;20497;-70
2024/03/02 11:53:19;;;;;;;3.63;2.27;;;15.80;1.00;;;;;;4995110;28;20433;-69
2024/03/02 11:55:46;;;;;;;2.60;2.40;;;15.90;1.00;;;;;;4994340;28;20812;-69
2024/03/02 11:58:12;;;;;;;2.53;2.20;;;15.80;1.00;;;;;;5012961;28;20462;-68
2024/03/02 12:00:38;;;;;;;2.40;2.13;;;15.80;1.00;;;;;;5012735;28;20477;-69
2024/03/02 12:03:09;;;;;;;3.30;2.47;;;15.80;1.00;;;;;;4994931;28;20431;-68
2024/03/02 12:05:36;;;;;;;4.13;2.70;;;16.00;1.00;;;;;;5012556;28;20444;-70
2024/03/02 12:08:06;;;;;;;4.20;2.30;;;16.30;1.00;;;;;;5012074;28;20422;-70
2024/03/02 12:10:33;;;;;;;1.93;1.73;;;16.40;1.00;;;;;;5012309;28;20410;-70
2024/03/02 12:13:00;;;;;;;2.50;2.30;;;16.60;1.00;;;;;;5012468;28;20418;-70
2024/03/02 12:15:33;;;;;;;3.10;2.80;;;16.60;1.00;;;;;;5012339;28;20458;-70
2024/03/02 12:18:01;;;;;;;3.60;2.90;;;16.60;1.00;;;;;;5012941;28;20522;-69
2024/03/02 12:20:29;;;;;;;2.23;2.03;;;16.40;1.00;;;;;;5012796;28;20510;-70
2024/03/02 12:22:56;;;;;;;2.87;2.30;;;16.40;1.00;;;;;;5012661;28;20422;-70
2024/03/02 12:25:23;;;;;;;3.40;2.60;;;16.50;1.00;;;;;;5012150;28;20446;-70
2024/03/02 12:27:55;;;;;;;3.07;2.30;;;16.50;1.00;;;;;;4994460;28;20458;-70
2024/03/02 12:30:22;;;;;;;3.27;2.60;;;16.50;1.00;;;;;;5012141;28;20917;-70
2024/03/02 12:32:48;;;;;;;2.50;2.30;;;16.50;1.00;;;;;;5012364;28;20445;-70
2024/03/02 12:35:15;;;;;;;2.60;2.10;;;16.50;1.00;;;;;;5011666;28;20447;-69
2024/03/02 12:37:48;;;;;;;2.03;1.80;;;16.50;1.00;;;;;;5011964;28;20462;-69
2024/03/02 12:40:18;;;;;;;3.70;3.40;;;16.40;1.00;;;;;;5012149;28;20526;-68
2024/03/02 12:42:44;;;;;;;2.80;2.50;;;16.60;1.00;;;;;;5011782;28;20419;-68
2024/03/02 12:45:10;;;;;;;3.80;2.63;;;16.70;1.00;;;;;;4993884;28;20478;-70
2024/03/02 12:47:37;;;;;;;2.20;1.70;;;16.60;1.00;;;;;;5011792;28;20427;-69
2024/03/02 12:50:04;;;;;;;4.83;2.70;;;16.40;1.00;;;;;;5011964;28;20420;-69
2024/03/02 12:52:32;;;;;;;2.17;1.97;;;16.40;1.00;;;;;;5011830;28;20888;-69
2024/03/02 12:55:03;;;;;;;2.53;2.10;;;16.20;1.00;;;;;;4994058;28;20481;-70